createdAt,value
2022-09-26T00:01:10.762Z,7.91
2022-09-26T00:04:23.031Z,7.92
2022-09-26T00:07:25.395Z,7.94
2022-09-26T00:10:26.949Z,7.95
2022-09-26T00:13:30.324Z,7.94
2022-09-26T00:16:32.015Z,7.95
2022-09-26T00:19:33.587Z,7.95
2022-09-26T00:22:35.179Z,7.96
2022-09-26T00:25:36.691Z,7.96
2022-09-26T00:28:38.508Z,7.97
2022-09-26T00:31:44.231Z,7.97
2022-09-26T00:34:45.752Z,7.97
2022-09-26T00:37:47.271Z,7.97
2022-09-26T00:40:50.478Z,7.97
2022-09-26T00:43:54.345Z,7.99
2022-09-26T00:46:55.896Z,7.99
2022-09-26T00:50:06.194Z,8.01
2022-09-26T00:53:15.014Z,8.02
2022-09-26T00:56:35.306Z,8.04
2022-09-26T00:59:41.860Z,8.05
2022-09-26T01:02:44.910Z,8.04
2022-09-26T01:05:47.350Z,8.06
2022-09-26T01:08:57.432Z,8.07
2022-09-26T01:12:02.144Z,8.09
2022-09-26T01:15:06.357Z,8.08
2022-09-26T01:18:07.924Z,8.10
2022-09-26T01:21:27.625Z,8.13
2022-09-26T01:24:50.142Z,8.13
2022-09-26T01:28:22.793Z,8.13
2022-09-26T01:31:30.452Z,8.14
2022-09-26T01:34:57.338Z,8.13
2022-09-26T01:38:01.868Z,8.15
2022-09-26T01:41:12.922Z,8.15
2022-09-26T01:44:39.018Z,8.17
2022-09-26T01:47:44.318Z,8.18
2022-09-26T01:50:51.241Z,8.19
2022-09-26T01:54:03.077Z,8.20
2022-09-26T01:57:08.965Z,8.18
2022-09-26T02:00:12.730Z,8.19
2022-09-26T02:03:19.416Z,8.20
2022-09-26T02:06:58.073Z,8.21
2022-09-26T02:10:09.770Z,8.21
2022-09-26T02:13:19.515Z,8.22
2022-09-26T02:16:51.810Z,8.24
2022-09-26T02:19:59.092Z,8.27
2022-09-26T02:23:03.988Z,8.29
2022-09-26T02:26:05.943Z,8.31
2022-09-26T02:29:08.615Z,8.35
2022-09-26T02:32:19.090Z,8.35
2022-09-26T02:35:39.118Z,8.36
2022-09-26T02:38:40.680Z,8.38
2022-09-26T02:42:11.353Z,8.40
2022-09-26T02:45:44.328Z,8.41
2022-09-26T02:49:16.877Z,8.43
2022-09-26T02:52:21.940Z,8.43
2022-09-26T02:55:49.549Z,8.44
2022-09-26T02:59:09.237Z,8.48
2022-09-26T03:02:19.717Z,8.50
2022-09-26T03:05:25.195Z,8.51
2022-09-26T03:08:32.073Z,8.52
2022-09-26T03:11:35.994Z,8.54
2022-09-26T03:14:41.746Z,8.54
2022-09-26T03:17:49.843Z,8.55
2022-09-26T03:20:54.203Z,8.56
2022-09-26T03:23:58.079Z,8.55
2022-09-26T03:27:00.637Z,8.57
2022-09-26T03:30:02.228Z,8.57
2022-09-26T03:33:03.956Z,8.58
2022-09-26T03:36:09.438Z,8.58
2022-09-26T03:39:11.336Z,8.57
2022-09-26T03:42:14.271Z,8.58
2022-09-26T03:45:15.877Z,8.57
2022-09-26T03:48:17.464Z,8.59
2022-09-26T03:51:19.495Z,8.60
2022-09-26T03:54:21.056Z,8.61
2022-09-26T03:57:22.804Z,8.61
2022-09-26T04:00:24.893Z,8.61
2022-09-26T04:03:27.541Z,8.63
2022-09-26T04:06:29.089Z,8.66
2022-09-26T04:09:31.130Z,8.68
2022-09-26T04:12:32.641Z,8.68
2022-09-26T04:15:34.154Z,8.69
2022-09-26T04:18:36.366Z,8.71
2022-09-26T04:21:40.145Z,8.72
2022-09-26T04:24:41.725Z,8.74
2022-09-26T04:27:43.245Z,8.74
2022-09-26T04:30:44.960Z,8.74
2022-09-26T04:33:46.493Z,8.75
2022-09-26T04:36:48.502Z,8.77
2022-09-26T04:39:50.040Z,8.79
2022-09-26T04:42:51.582Z,8.78
2022-09-26T04:45:53.171Z,8.81
2022-09-26T04:48:56.996Z,8.82
2022-09-26T04:51:58.533Z,8.83
2022-09-26T04:55:00.045Z,8.84
2022-09-26T04:58:02.543Z,8.84
2022-09-26T05:01:06.866Z,8.85
2022-09-26T05:04:10.110Z,8.87
2022-09-26T05:07:11.840Z,8.87
2022-09-26T05:10:13.375Z,8.88
2022-09-26T05:13:14.893Z,9.02
2022-09-26T05:16:17.194Z,9.10
2022-09-26T05:19:18.958Z,9.11
2022-09-26T05:22:20.503Z,9.12
2022-09-26T05:25:40.713Z,9.11
2022-09-26T05:28:42.262Z,9.11
2022-09-26T05:31:43.910Z,9.10
2022-09-26T05:34:46.510Z,9.09
2022-09-26T05:37:48.036Z,9.06
2022-09-26T05:40:56.670Z,9.03
2022-09-26T05:43:58.965Z,9.01
2022-09-26T05:47:00.611Z,9.01
2022-09-26T05:50:10.044Z,8.97
2022-09-26T05:53:11.898Z,8.96
2022-09-26T05:56:18.791Z,9.02
2022-09-26T05:59:21.089Z,9.03
2022-09-26T06:02:22.681Z,9.05
2022-09-26T06:05:25.482Z,9.03
2022-09-26T06:08:28.265Z,9.03
2022-09-26T06:11:31.147Z,9.03
2022-09-26T06:14:32.969Z,9.01
2022-09-26T06:17:34.484Z,9.00
2022-09-26T06:20:36.105Z,9.01
2022-09-26T06:23:38.893Z,9.01
2022-09-26T06:26:40.448Z,9.02
2022-09-26T06:29:42.030Z,9.04
2022-09-26T06:32:45.477Z,9.04
2022-09-26T06:35:47.401Z,9.05
2022-09-26T06:38:49.725Z,9.07
2022-09-26T06:41:51.338Z,9.08
2022-09-26T06:44:53.058Z,9.09
2022-09-26T06:47:54.806Z,9.09
2022-09-26T06:51:00.193Z,9.11
2022-09-26T06:54:01.807Z,9.11
2022-09-26T06:57:03.472Z,9.12
2022-09-26T07:00:05.415Z,9.15
2022-09-26T07:03:08.338Z,9.15
2022-09-26T07:06:09.913Z,9.16
2022-09-26T07:09:12.658Z,9.17
2022-09-26T07:12:15.991Z,9.16
2022-09-26T07:15:19.610Z,9.17
2022-09-26T07:18:21.147Z,9.17
2022-09-26T07:21:22.955Z,9.18
2022-09-26T07:24:24.588Z,9.17
2022-09-26T07:27:26.443Z,9.18
2022-09-26T07:30:28.528Z,9.19
2022-09-26T07:33:30.241Z,9.20
2022-09-26T07:36:31.965Z,9.22
2022-09-26T07:39:33.890Z,9.24
2022-09-26T07:42:38.471Z,9.27
2022-09-26T07:45:58.663Z,9.33
2022-09-26T07:49:18.783Z,9.37
2022-09-26T07:52:22.574Z,9.42
2022-09-26T07:55:28.325Z,9.48
2022-09-26T07:58:29.833Z,9.52
2022-09-26T08:01:32.168Z,9.55
2022-09-26T08:04:33.827Z,9.57
2022-09-26T08:07:35.632Z,9.60
2022-09-26T08:10:37.324Z,9.62
2022-09-26T08:13:38.881Z,9.65
2022-09-26T08:16:41.750Z,9.69
2022-09-26T08:19:43.601Z,9.70
2022-09-26T08:22:45.125Z,9.71
2022-09-26T08:25:46.632Z,9.72
2022-09-26T08:28:48.149Z,9.73
2022-09-26T08:31:50.334Z,9.74
2022-09-26T08:34:52.626Z,9.75
2022-09-26T08:37:54.181Z,9.76
2022-09-26T08:41:32.491Z,9.77
2022-09-26T08:44:55.980Z,9.77
2022-09-26T08:48:14.789Z,9.77
2022-09-26T08:51:40.689Z,9.77
2022-09-26T08:54:45.130Z,9.75
2022-09-26T08:57:52.739Z,9.74
2022-09-26T09:01:05.177Z,9.74
2022-09-26T09:04:16.655Z,9.75
2022-09-26T09:07:23.649Z,9.76
2022-09-26T09:10:44.849Z,9.78
2022-09-26T09:14:08.244Z,9.80
2022-09-26T09:17:32.212Z,9.83
2022-09-26T09:20:45.998Z,9.86
2022-09-26T09:23:53.289Z,9.86
2022-09-26T09:30:31.299Z,9.89
2022-09-26T09:33:39.358Z,9.93
2022-09-26T09:36:45.005Z,9.93
2022-09-26T09:39:49.129Z,9.96
2022-09-26T09:43:01.649Z,9.98
2022-09-26T09:46:29.326Z,9.99
2022-09-26T09:49:31.040Z,9.98
2022-09-26T09:52:57.317Z,10.01
2022-09-26T09:56:11.673Z,10.01
2022-09-26T09:59:58.150Z,10.01
2022-09-26T10:03:37.877Z,9.96
2022-09-26T10:06:46.648Z,9.91
2022-09-26T10:09:51.929Z,9.89
2022-09-26T10:12:54.555Z,9.90
2022-09-26T10:16:01.729Z,9.93
2022-09-26T10:19:04.304Z,9.95
2022-09-26T10:22:15.362Z,9.97
2022-09-26T10:25:21.561Z,9.97
2022-09-26T10:28:30.136Z,10.10
2022-09-26T10:31:42.947Z,10.51
2022-09-26T10:35:03.960Z,10.85
2022-09-26T10:38:20.895Z,11.07
2022-09-26T10:41:25.177Z,11.36
2022-09-26T10:44:35.153Z,11.42
2022-09-26T10:47:37.742Z,11.33
2022-09-26T10:50:52.097Z,11.20
2022-09-26T10:54:04.405Z,11.07
2022-09-26T10:57:09.536Z,10.91
2022-09-26T11:00:33.473Z,10.80
2022-09-26T11:03:44.340Z,10.69
2022-09-26T11:06:46.016Z,10.63
2022-09-26T11:09:47.868Z,10.57
2022-09-26T11:13:03.446Z,10.55
2022-09-26T11:16:05.026Z,10.52
2022-09-26T11:19:17.281Z,10.50
2022-09-26T11:22:26.568Z,10.48
2022-09-26T11:25:32.873Z,10.47
2022-09-26T11:28:45.004Z,10.44
2022-09-26T11:31:46.944Z,10.42
2022-09-26T11:34:48.490Z,10.43
2022-09-26T11:38:27.076Z,10.43
2022-09-26T11:41:56.283Z,10.40
2022-09-26T11:45:00.540Z,10.39
2022-09-26T11:48:23.516Z,10.40
2022-09-26T11:51:59.126Z,10.39
2022-09-26T11:55:24.316Z,10.37
2022-09-26T11:58:51.408Z,10.37
2022-09-26T12:02:15.787Z,10.35
2022-09-26T12:05:27.404Z,10.32
2022-09-26T12:08:30.212Z,10.28
2022-09-26T12:11:58.107Z,10.23
2022-09-26T12:15:08.840Z,10.19
2022-09-26T12:18:13.257Z,10.19
2022-09-26T12:21:23.549Z,10.17
2022-09-26T12:24:40.223Z,10.16
2022-09-26T12:27:49.933Z,10.12
2022-09-26T12:31:01.486Z,10.09
2022-09-26T12:34:13.795Z,10.05
2022-09-26T12:37:46.453Z,10.02
2022-09-26T12:41:02.344Z,9.97
2022-09-26T12:44:31.333Z,9.94
2022-09-26T12:47:48.959Z,9.93
2022-09-26T12:51:09.153Z,9.93
2022-09-26T12:54:35.777Z,9.93
2022-09-26T12:57:58.509Z,9.90
2022-09-26T13:01:24.787Z,9.88
2022-09-26T13:04:48.033Z,9.95
2022-09-26T13:08:11.043Z,9.93
2022-09-26T13:11:32.390Z,9.90
2022-09-26T13:15:06.725Z,9.86
2022-09-26T13:18:15.581Z,9.84
2022-09-26T13:21:28.549Z,9.80
2022-09-26T13:25:02.806Z,9.78
2022-09-26T13:28:17.907Z,9.77
2022-09-26T13:31:32.479Z,9.76
2022-09-26T13:34:40.944Z,9.73
2022-09-26T13:37:42.522Z,9.70
2022-09-26T13:40:57.260Z,9.68
2022-09-26T13:44:06.310Z,9.69
2022-09-26T13:47:35.294Z,9.68
2022-09-26T13:50:55.647Z,9.65
2022-09-26T13:54:21.439Z,9.65
2022-09-26T13:57:31.822Z,9.63
2022-09-26T14:00:48.928Z,9.71
2022-09-26T14:04:17.856Z,9.73
2022-09-26T14:07:44.395Z,9.74
2022-09-26T14:10:53.909Z,9.76
2022-09-26T14:14:18.096Z,9.76
2022-09-26T14:17:41.478Z,9.77
2022-09-26T14:20:55.092Z,9.72
2022-09-26T14:24:25.932Z,9.68
2022-09-26T14:27:36.933Z,9.67
2022-09-26T14:30:38.546Z,9.64
2022-09-26T14:33:40.563Z,9.62
2022-09-26T14:36:44.299Z,9.59
2022-09-26T14:39:46.555Z,9.59
2022-09-26T14:42:55.236Z,9.57
2022-09-26T14:46:05.537Z,9.55
2022-09-26T14:49:16.706Z,9.55
2022-09-26T14:52:20.527Z,9.53
2022-09-26T14:55:22.282Z,9.54
2022-09-26T14:58:50.731Z,9.57
2022-09-26T15:02:15.351Z,9.57
2022-09-26T15:05:23.985Z,9.55
2022-09-26T15:08:28.946Z,9.55
2022-09-26T15:11:44.129Z,9.55
2022-09-26T15:15:20.057Z,9.55
2022-09-26T15:18:27.390Z,9.54
2022-09-26T15:21:50.296Z,9.54
2022-09-26T15:24:55.852Z,9.53
2022-09-26T15:27:58.580Z,9.54
2022-09-26T15:31:21.873Z,9.56
2022-09-26T15:34:31.996Z,9.57
2022-09-26T15:37:36.140Z,9.58
2022-09-26T15:40:37.851Z,9.58
2022-09-26T15:43:39.484Z,9.59
2022-09-26T15:46:41.663Z,9.59
2022-09-26T15:49:43.428Z,9.58
2022-09-26T15:52:55.288Z,9.56
2022-09-26T15:56:05.760Z,9.56
2022-09-26T15:59:17.853Z,9.56
2022-09-26T16:02:23.785Z,9.54
2022-09-26T16:05:27.095Z,9.55
2022-09-26T16:08:34.431Z,9.56
2022-09-26T16:11:47.676Z,9.55
2022-09-26T16:15:03.010Z,9.55
2022-09-26T16:18:04.701Z,9.52
2022-09-26T16:21:23.186Z,9.55
2022-09-26T16:24:36.296Z,9.54
2022-09-26T16:27:37.853Z,9.56
2022-09-26T16:30:45.791Z,9.57
2022-09-26T16:33:52.273Z,9.57
2022-09-26T16:36:54.317Z,9.58
2022-09-26T16:39:59.102Z,9.58
2022-09-26T16:43:03.504Z,9.57
2022-09-26T16:46:07.754Z,9.57
2022-09-26T16:49:29.505Z,9.58
2022-09-26T16:52:36.413Z,9.56
2022-09-26T16:55:38.129Z,9.57
2022-09-26T16:58:46.777Z,9.57
2022-09-26T17:01:55.683Z,9.58
2022-09-26T17:04:57.339Z,9.57
2022-09-26T17:07:58.933Z,9.57
2022-09-26T17:11:02.593Z,9.57
2022-09-26T17:14:04.441Z,9.56
2022-09-26T17:17:10.789Z,9.57
2022-09-26T17:20:14.508Z,9.57
2022-09-26T17:23:38.760Z,9.57
2022-09-26T17:26:38.811Z,9.56
2022-09-26T17:29:44.521Z,9.61
2022-09-26T17:32:52.421Z,9.84
2022-09-26T17:35:54.317Z,9.82
2022-09-26T17:39:00.205Z,9.80
2022-09-26T17:42:03.477Z,9.78
2022-09-26T17:45:06.237Z,9.77
2022-09-26T17:48:14.865Z,9.76
2022-09-26T17:51:16.461Z,9.75
2022-09-26T17:54:20.436Z,9.74
2022-09-26T17:57:25.634Z,9.75
2022-09-26T18:00:32.259Z,9.75
2022-09-26T18:03:36.451Z,9.72
2022-09-26T18:06:38.358Z,9.72
2022-09-26T18:09:41.036Z,9.75
2022-09-26T18:12:44.574Z,9.77
2022-09-26T18:15:46.137Z,9.76
2022-09-26T18:18:48.083Z,9.79
2022-09-26T18:21:54.582Z,9.81
2022-09-26T18:25:04.654Z,9.81
2022-09-26T18:28:11.087Z,9.81
2022-09-26T18:31:12.915Z,9.82
2022-09-26T18:34:19.911Z,9.86
2022-09-26T18:37:21.549Z,9.86
2022-09-26T18:40:24.899Z,9.87
2022-09-26T18:43:37.767Z,9.86
2022-09-26T18:46:44.685Z,9.86
2022-09-26T18:49:47.040Z,10.08
2022-09-26T18:52:48.993Z,10.13
2022-09-26T18:56:09.461Z,10.15
2022-09-26T18:59:11.281Z,10.14
2022-09-26T19:02:23.297Z,10.12
2022-09-26T19:05:25.753Z,10.10
2022-09-26T19:08:28.867Z,10.10
2022-09-26T19:11:35.250Z,10.09
2022-09-26T19:14:36.892Z,10.07
2022-09-26T19:17:38.727Z,10.05
2022-09-26T19:20:40.840Z,10.04
2022-09-26T19:23:42.750Z,10.04
2022-09-26T19:26:44.389Z,10.02
2022-09-26T19:30:04.747Z,10.01
2022-09-26T19:33:06.388Z,10.02
2022-09-26T19:36:10.403Z,9.99
2022-09-26T19:39:15.870Z,9.98
2022-09-26T19:42:18.377Z,9.98
2022-09-26T19:45:20.336Z,9.98
2022-09-26T19:48:23.336Z,9.97
2022-09-26T19:51:25.082Z,10.00
2022-09-26T19:54:27.104Z,10.04
2022-09-26T19:57:28.654Z,10.04
2022-09-26T20:00:31.185Z,10.04
2022-09-26T20:03:39.884Z,10.07
2022-09-26T20:06:41.621Z,10.08
2022-09-26T20:09:43.491Z,10.11
2022-09-26T20:12:46.432Z,10.13
2022-09-26T20:15:48.593Z,10.14
2022-09-26T20:18:51.699Z,10.14
2022-09-26T20:21:53.297Z,10.13
2022-09-26T20:24:55.788Z,10.14
2022-09-26T20:27:58.736Z,10.12
2022-09-26T20:31:00.499Z,10.12
2022-09-26T20:34:02.121Z,10.14
2022-09-26T20:37:03.689Z,10.15
2022-09-26T20:40:27.184Z,10.15
2022-09-26T20:43:36.061Z,10.16
2022-09-26T20:46:43.275Z,10.16
2022-09-26T20:49:59.292Z,10.12
2022-09-26T20:53:01.145Z,10.16
2022-09-26T20:56:03.936Z,10.20
2022-09-26T20:59:06.695Z,10.22
2022-09-26T21:02:37.138Z,10.24
2022-09-26T21:05:39.272Z,10.26
2022-09-26T21:08:41.370Z,10.27
2022-09-26T21:11:43.152Z,10.28
2022-09-26T21:14:44.888Z,10.27
2022-09-26T21:17:47.418Z,10.28
2022-09-26T21:20:49.326Z,10.31
2022-09-26T21:23:51.804Z,10.34
2022-09-26T21:26:53.368Z,10.32
2022-09-26T21:29:54.924Z,10.32
2022-09-26T21:32:58.873Z,10.34
2022-09-26T21:36:00.577Z,10.35
2022-09-26T21:39:02.381Z,10.39
2022-09-26T21:42:05.373Z,10.40
2022-09-26T21:45:09.924Z,10.37
2022-09-26T21:48:13.441Z,10.37
2022-09-26T21:51:15.350Z,10.41
2022-09-26T21:54:25.002Z,10.43
2022-09-26T21:57:30.423Z,10.44
2022-09-26T22:00:31.992Z,10.43
2022-09-26T22:03:33.788Z,10.43
2022-09-26T22:06:35.346Z,10.44
2022-09-26T22:09:36.925Z,10.45
2022-09-26T22:12:38.443Z,10.45
2022-09-26T22:15:40.011Z,10.49
2022-09-26T22:18:41.684Z,10.50
2022-09-26T22:21:43.292Z,10.50
2022-09-26T22:24:44.917Z,10.48
2022-09-26T22:27:46.475Z,10.47
2022-09-26T22:30:49.427Z,10.45
2022-09-26T22:33:51.170Z,10.45
2022-09-26T22:36:52.935Z,10.45
2022-09-26T22:39:54.542Z,10.43
2022-09-26T22:42:56.096Z,10.41
2022-09-26T22:46:08.295Z,10.38
2022-09-26T22:49:09.968Z,10.36
2022-09-26T22:52:11.607Z,10.34
2022-09-26T22:55:13.596Z,10.30
2022-09-26T22:58:15.128Z,10.28
2022-09-26T23:01:25.374Z,10.24
2022-09-26T23:04:47.004Z,10.22
2022-09-26T23:07:48.827Z,10.21
2022-09-26T23:10:51.937Z,10.19
2022-09-26T23:13:53.764Z,10.19
2022-09-26T23:16:55.335Z,10.18
2022-09-26T23:19:56.908Z,10.17
2022-09-26T23:22:58.460Z,10.15
2022-09-26T23:26:00.317Z,10.14
2022-09-26T23:29:01.924Z,10.14
2022-09-26T23:32:03.693Z,10.14
2022-09-26T23:35:05.755Z,10.12
2022-09-26T23:38:07.668Z,10.12
2022-09-26T23:41:11.147Z,10.12
2022-09-26T23:44:12.707Z,10.13
2022-09-26T23:47:14.251Z,10.13
2022-09-26T23:50:16.346Z,10.13
2022-09-26T23:53:18.226Z,10.12
2022-09-26T23:56:20.236Z,10.13
2022-09-26T23:59:21.756Z,10.13
